Time;durP1;ratioP1;P1;durP2;ratioP2;P2;SDS_P1;SDS_P2;PMS_P1;PMS_P2;Temp;Humidity;BMP_temperature;BMP_pressure;BME280_temperature;BME280_humidity;BME280_pressure;Samples;Min_cycle;Max_cycle;Signal;HPM_P1;HPM_P2
2021/01/16 00:01:35;;;;;;;36.43;16.07;;;;;;;-1.22;100.00;97123.28;5059681;28;20198;-71
2021/01/16 00:04:01;;;;;;;33.70;15.17;;;;;;;-1.20;100.00;97125.78;5059575;28;20235;-70
2021/01/16 00:06:28;;;;;;;32.97;15.20;;;;;;;-1.14;100.00;97122.84;5058883;28;20725;-72
2021/01/16 00:08:55;;;;;;;36.80;14.50;;;;;;;-1.11;100.00;97123.53;5059236;28;20304;-71
2021/01/16 00:11:21;;;;;;;30.47;14.13;;;;;;;-1.16;100.00;97125.53;5059208;28;20209;-71
2021/01/16 00:13:47;;;;;;;30.77;14.13;;;;;;;-1.13;100.00;97127.94;5059316;28;20236;-71
2021/01/16 00:16:13;;;;;;;37.87;15.57;;;;;;;-1.31;100.00;97128.13;5058598;28;20285;-72
2021/01/16 00:18:39;;;;;;;32.70;15.57;;;;;;;-1.31;100.00;97127.28;5059351;28;20576;-71
2021/01/16 00:21:05;;;;;;;36.40;15.50;;;;;;;-1.32;100.00;97123.88;5059054;28;20539;-72
2021/01/16 00:23:32;;;;;;;32.27;14.50;;;;;;;-1.17;100.00;97120.44;5059502;28;20283;-72
2021/01/16 00:25:58;;;;;;;34.60;15.03;;;;;;;-1.19;100.00;97123.09;5058501;28;20231;-72
2021/01/16 00:28:26;;;;;;;35.03;14.60;;;;;;;-1.29;100.00;97125.47;5059162;28;20208;-71
2021/01/16 00:30:52;;;;;;;31.13;14.27;;;;;;;-1.16;100.00;97135.03;5059272;28;20204;-72
2021/01/16 00:33:21;;;;;;;32.50;15.13;;;;;;;-1.21;100.00;97132.72;5059258;28;20220;-72
2021/01/16 00:35:47;;;;;;;31.17;14.77;;;;;;;-1.24;100.00;97133.78;5058281;28;20223;-72
2021/01/16 00:38:14;;;;;;;32.30;15.13;;;;;;;-1.13;100.00;97134.88;5059424;28;20777;-72
2021/01/16 00:40:41;;;;;;;32.87;14.40;;;;;;;-1.04;100.00;97131.78;5058894;28;20199;-72
2021/01/16 00:43:09;;;;;;;34.33;15.03;;;;;;;-1.05;100.00;97138.69;5058877;28;20200;-72
2021/01/16 00:45:35;;;;;;;29.13;14.90;;;;;;;-1.09;100.00;97132.00;5058029;28;20231;-72
2021/01/16 00:48:09;;;;;;;30.27;14.20;;;;;;;-1.18;100.00;97135.13;5058721;28;20197;-72
2021/01/16 00:50:35;;;;;;;31.90;14.43;;;;;;;-1.02;100.00;97137.69;5058465;28;20674;-72
2021/01/16 00:53:01;;;;;;;35.73;14.80;;;;;;;-1.05;100.00;97140.44;5058896;28;20250;-71
2021/01/16 00:55:28;;;;;;;28.67;14.23;;;;;;;-1.33;100.00;97144.66;5057633;28;20738;-72
2021/01/16 00:57:55;;;;;;;30.13;14.23;;;;;;;-1.30;100.00;97141.88;5058313;28;21061;-72
2021/01/16 01:00:23;;;;;;;29.73;14.43;;;;;;;-1.15;100.00;97141.88;5058668;28;20207;-71
2021/01/16 01:02:49;;;;;;;35.17;14.90;;;;;;;-1.18;100.00;97142.88;5057446;28;20243;-71
2021/01/16 01:05:17;;;;;;;30.67;15.00;;;;;;;-1.14;100.00;97144.38;5057730;28;20225;-72
2021/01/16 01:07:46;;;;;;;31.07;14.23;;;;;;;-1.10;100.00;97140.69;5058417;28;20214;-72
2021/01/16 01:10:12;;;;;;;32.50;15.30;;;;;;;-1.10;100.00;97148.44;5058118;28;20205;-72
2021/01/16 01:12:39;;;;;;;34.30;14.97;;;;;;;-1.25;100.00;97147.63;5058331;28;20227;-72
2021/01/16 01:15:07;;;;;;;32.00;14.00;;;;;;;-1.21;100.00;97150.81;5057465;28;20339;-71
2021/01/16 01:17:33;;;;;;;29.50;13.70;;;;;;;-1.16;100.00;97143.63;5057875;28;20695;-72
2021/01/16 01:19:59;;;;;;;29.03;13.60;;;;;;;-1.12;100.00;97142.53;5057755;28;20200;-72
2021/01/16 01:22:30;;;;;;;35.70;15.17;;;;;;;-1.19;100.00;97146.38;5057968;28;20648;-71
2021/01/16 01:24:56;;;;;;;29.73;14.47;;;;;;;-1.14;100.00;97144.38;5057693;28;21171;-72
2021/01/16 01:27:22;;;;;;;31.80;14.17;;;;;;;-1.10;100.00;97145.84;5057494;28;20241;-72
2021/01/16 01:29:48;;;;;;;31.80;15.17;;;;;;;-1.20;100.00;97144.72;5057710;28;20806;-71
2021/01/16 01:32:15;;;;;;;29.63;14.20;;;;;;;-1.05;100.00;97140.44;5057948;28;20278;-71
2021/01/16 01:34:41;;;;;;;192.03;39.30;;;;;;;-1.12;100.00;97142.53;5057699;28;20283;-72
2021/01/16 01:37:07;;;;;;;88.87;26.60;;;;;;;-1.19;100.00;97143.78;5056948;28;21159;-71
2021/01/16 01:39:33;;;;;;;42.27;16.67;;;;;;;-1.28;100.00;97140.06;5058244;28;20245;-72
2021/01/16 01:41:59;;;;;;;53.67;18.30;;;;;;;-1.23;100.00;97146.63;5057095;28;20202;-72
2021/01/16 01:44:25;;;;;;;37.30;15.30;;;;;;;-1.14;100.00;97148.72;5057525;28;20201;-72
2021/01/16 01:46:52;;;;;;;35.23;15.50;;;;;;;-1.10;100.00;97145.84;5056856;28;20620;-72
2021/01/16 01:49:19;;;;;;;33.20;14.47;;;;;;;-1.11;100.00;97149.38;5057907;28;20199;-72
2021/01/16 01:51:45;;;;;;;33.00;14.73;;;;;;;-1.20;100.00;97139.56;5057203;28;20229;-72
2021/01/16 01:54:12;;;;;;;32.47;15.07;;;;;;;-1.20;100.00;97146.47;5057501;28;20208;-72
2021/01/16 01:56:38;;;;;;;34.47;15.90;;;;;;;-1.24;100.00;97144.13;5056789;28;20220;-72
2021/01/16 01:59:06;;;;;;;28.93;14.33;;;;;;;-1.09;100.00;97149.28;5057700;28;20202;-72
2021/01/16 02:01:38;;;;;;;32.47;14.13;;;;;;;-1.24;100.00;97144.13;5057686;28;20649;-72
2021/01/16 02:04:05;;;;;;;34.17;14.90;;;;;;;-1.19;100.00;97138.59;5057409;28;20201;-71
2021/01/16 02:06:32;;;;;;;31.93;15.30;;;;;;;-1.22;100.00;97140.56;5056366;28;20231;-72
2021/01/16 02:08:58;;;;;;;32.80;14.93;;;;;;;-1.18;100.00;97144.63;5056734;28;20209;-71
2021/01/16 02:11:24;;;;;;;33.30;15.60;;;;;;;-1.23;100.00;97141.47;5057501;28;20237;-72
2021/01/16 02:13:50;;;;;;;38.43;16.20;;;;;;;-1.46;100.00;97148.81;5056873;28;20262;-72
2021/01/16 02:16:24;;;;;;;35.40;15.50;;;;;;;-1.16;100.00;97151.38;5056385;28;20598;-72
2021/01/16 02:18:54;;;;;;;35.37;15.70;;;;;;;-1.18;100.00;97142.88;5056814;28;20215;-72
2021/01/16 02:21:21;;;;;;;30.37;14.70;;;;;;;-1.15;100.00;97145.28;5057098;28;20200;-72
2021/01/16 02:24:03;;;;;;;33.00;14.73;;;;;;;-1.03;100.00;97148.94;5056619;28;20213;-72
2021/01/16 02:26:50;;;;;;;32.30;14.73;;;;;;;-1.02;100.00;97151.47;5055924;28;20219;-72
2021/01/16 02:29:17;;;;;;;33.07;14.87;;;;;;;-1.18;100.00;97148.03;5056769;28;20207;-71
2021/01/16 02:31:48;;;;;;;30.00;13.80;;;;;;;-1.18;100.00;97147.22;5057051;28;20397;-72
2021/01/16 02:34:18;;;;;;;35.63;15.90;;;;;;;-1.21;100.00;97145.63;5056990;28;20196;-72
2021/01/16 02:37:14;;;;;;;33.27;14.23;;;;;;;-1.34;100.00;97148.16;5055980;28;20228;-72
2021/01/16 02:39:44;;;;;;;32.77;15.43;;;;;;;-1.25;100.00;97143.28;5056884;28;20723;-72
2021/01/16 02:42:19;;;;;;;30.83;15.23;;;;;;;-1.32;100.00;97157.47;5056760;28;20720;-72
2021/01/16 02:44:56;;;;;;;36.67;15.50;;;;;;;-1.21;100.00;97150.81;5056604;28;20204;-71
2021/01/16 02:47:27;;;;;;;26.17;13.13;;;;;;;-1.14;100.00;97156.47;5056426;28;20216;-72
2021/01/16 02:49:55;;;;;;;33.17;14.07;;;;;;;-1.29;100.00;97153.91;5056480;28;20289;-72
2021/01/16 02:52:23;;;;;;;30.60;14.23;;;;;;;-1.22;100.00;97154.31;5057299;28;20220;-72
2021/01/16 02:54:49;;;;;;;33.00;14.20;;;;;;;-1.09;100.00;97147.53;5056847;28;20200;-71
2021/01/16 02:57:16;;;;;;;30.57;14.27;;;;;;;-1.26;100.00;97145.97;5055365;28;20201;-72
2021/01/16 02:59:44;;;;;;;30.80;14.23;;;;;;;-1.17;100.00;97146.31;5056581;28;20213;-72
2021/01/16 03:02:13;;;;;;;34.03;14.73;;;;;;;-1.40;100.00;97151.06;5057490;28;20197;-72
2021/01/16 03:05:03;;;;;;;33.60;15.70;;;;;;;-1.46;100.00;97149.63;5056603;28;20212;-72
2021/01/16 03:07:31;;;;;;;31.60;14.77;;;;;;;-1.36;100.00;97153.41;5055343;28;20196;-72
2021/01/16 03:09:58;;;;;;;33.73;15.50;;;;;;;-1.23;100.00;97146.63;5056610;28;20581;-71
2021/01/16 03:12:25;;;;;;;34.77;15.00;;;;;;;-1.26;100.00;97139.06;5056604;28;20227;-72
2021/01/16 03:14:55;;;;;;;32.03;14.60;;;;;;;-1.34;100.00;97142.97;5056119;28;20295;-72
2021/01/16 03:17:25;;;;;;;33.20;14.97;;;;;;;-1.21;100.00;97130.13;5056058;28;20676;-72
2021/01/16 03:19:52;;;;;;;34.97;15.33;;;;;;;-1.20;100.00;97139.56;5056190;28;20310;-72
2021/01/16 03:22:20;;;;;;;30.93;14.37;;;;;;;-1.26;100.00;97133.03;5056178;28;20200;-71
2021/01/16 03:24:49;;;;;;;31.37;13.87;;;;;;;-1.20;100.00;97130.94;5056629;28;20204;-72
2021/01/16 03:27:15;;;;;;;33.77;14.47;;;;;;;-1.10;100.00;97126.94;5059130;28;20739;-72
2021/01/16 03:29:41;;;;;;;32.83;14.47;;;;;;;-1.24;100.00;97138.97;5059828;28;20210;-72
2021/01/16 03:32:07;;;;;;;34.53;14.60;;;;;;;-1.17;100.00;97126.44;5060314;28;20224;-72
2021/01/16 03:34:34;;;;;;;29.63;13.57;;;;;;;-1.04;100.00;97132.59;5060055;28;20208;-72
2021/01/16 03:37:01;;;;;;;35.50;15.17;;;;;;;-1.18;100.00;97137.69;5059357;28;20205;-72
2021/01/16 03:39:27;;;;;;;32.87;14.17;;;;;;;-1.18;100.00;97129.94;5060164;28;20201;-71
2021/01/16 03:41:53;;;;;;;32.40;15.80;;;;;;;-1.20;100.00;97134.38;5059992;28;20196;-72
2021/01/16 03:44:19;;;;;;;34.20;14.30;;;;;;;-1.16;100.00;97133.28;5060137;28;20205;-72
2021/01/16 03:46:45;;;;;;;33.37;13.80;;;;;;;-1.18;100.00;97137.69;5059025;28;20220;-72
2021/01/16 03:49:13;;;;;;;31.87;13.73;;;;;;;-1.13;100.00;97129.69;5060389;28;20204;-72
2021/01/16 03:51:40;;;;;;;30.75;14.30;;;;;;;-1.17;100.00;97134.19;5059885;28;20648;-72
2021/01/16 03:54:06;;;;;;;29.33;14.40;;;;;;;-1.13;100.00;97132.28;5059821;28;20207;-71
2021/01/16 03:56:32;;;;;;;31.37;14.47;;;;;;;-1.10;100.00;97129.53;5059424;28;20220;-72
2021/01/16 03:58:58;;;;;;;30.17;14.27;;;;;;;-1.07;100.00;97127.59;5059572;28;20312;-72
2021/01/16 04:01:23;;;;;;;32.00;14.67;;;;;;;-0.97;100.00;97128.75;5059715;28;20253;-71
2021/01/16 04:03:49;;;;;;;34.03;14.33;;;;;;;-1.08;100.00;97136.28;5060145;28;20205;-72
2021/01/16 04:06:16;;;;;;;32.80;14.47;;;;;;;-0.97;100.00;97136.53;5058756;28;20573;-71
2021/01/16 04:08:43;;;;;;;32.37;13.73;;;;;;;-0.95;100.00;97137.25;5059353;28;20697;-72
2021/01/16 04:11:09;;;;;;;31.93;13.97;;;;;;;-1.02;100.00;97140.25;5059153;28;20200;-72
2021/01/16 04:13:36;;;;;;;30.80;13.93;;;;;;;-1.10;100.00;97143.28;5059786;28;20220;-71
2021/01/16 04:16:02;;;;;;;30.17;13.90;;;;;;;-1.17;100.00;97135.97;5058627;28;20228;-72
2021/01/16 04:18:28;;;;;;;34.57;14.67;;;;;;;-1.06;100.00;97142.22;5059272;28;20208;-72
2021/01/16 04:20:54;;;;;;;30.50;14.13;;;;;;;-1.10;100.00;97137.28;5059870;28;20204;-72
2021/01/16 04:23:20;;;;;;;29.17;13.47;;;;;;;-1.02;100.00;97141.13;5059355;28;20193;-72
2021/01/16 04:25:47;;;;;;;31.67;13.80;;;;;;;-1.00;100.00;97144.44;5058283;28;20278;-72
2021/01/16 04:28:13;;;;;;;35.67;14.20;;;;;;;-1.17;100.00;97147.13;5059518;28;20197;-73
2021/01/16 04:30:39;;;;;;;30.63;13.90;;;;;;;-1.14;100.00;97146.13;5058840;28;20228;-72
2021/01/16 04:33:06;;;;;;;28.40;13.63;;;;;;;-1.09;100.00;97149.28;5059184;28;20233;-72
2021/01/16 04:35:32;;;;;;;32.50;13.30;;;;;;;-1.08;100.00;97144.03;5058710;28;20629;-72
2021/01/16 04:37:58;;;;;;;31.37;13.97;;;;;;;-1.14;100.00;97149.53;5058761;28;20204;-72
2021/01/16 04:40:24;;;;;;;31.60;13.47;;;;;;;-1.14;100.00;97151.31;5058750;28;20689;-72
2021/01/16 04:42:52;;;;;;;30.27;13.10;;;;;;;-1.18;100.00;97150.63;5058968;28;20343;-72
2021/01/16 04:45:19;;;;;;;30.07;13.40;;;;;;;-1.11;100.00;97154.56;5057806;28;20216;-71
2021/01/16 04:47:46;;;;;;;33.50;13.80;;;;;;;-1.04;100.00;97148.09;5058465;28;20712;-72
2021/01/16 04:50:15;;;;;;;29.73;13.33;;;;;;;-1.03;100.00;97148.94;5058722;28;20208;-72
2021/01/16 04:52:42;;;;;;;28.87;13.87;;;;;;;-1.13;100.00;97147.81;5058756;28;20225;-71
2021/01/16 04:55:10;;;;;;;30.57;13.90;;;;;;;-1.08;100.00;97141.44;5057765;28;20225;-72
2021/01/16 04:57:38;;;;;;;29.23;13.67;;;;;;;-1.05;100.00;97150.78;5058440;28;20205;-72
2021/01/16 05:00:08;;;;;;;28.77;13.40;;;;;;;-1.05;100.00;97150.78;5058715;28;20266;-71
2021/01/16 05:02:37;;;;;;;28.50;13.23;;;;;;;-1.08;100.00;97138.88;5058569;28;20274;-72
2021/01/16 05:05:04;;;;;;;26.77;13.33;;;;;;;-1.04;100.00;97136.94;5057315;28;20307;-72
2021/01/16 05:07:32;;;;;;;26.83;13.10;;;;;;;-1.27;100.00;97144.28;5058516;28;20288;-71
2021/01/16 05:10:00;;;;;;;28.80;13.47;;;;;;;-1.17;100.00;97135.97;5058410;28;20212;-72
2021/01/16 05:12:51;;;;;;;30.30;13.43;;;;;;;-1.13;100.00;97143.44;5058416;28;20281;-72
2021/01/16 05:15:22;;;;;;;31.97;14.50;;;;;;;-1.20;100.00;97139.56;5057446;28;20227;-71
2021/01/16 05:17:56;;;;;;;32.53;14.90;;;;;;;-1.14;100.00;97146.13;5058334;28;21043;-72
2021/01/16 05:20:22;;;;;;;33.90;14.63;;;;;;;-1.20;100.00;97136.97;5057826;28;20287;-72
2021/01/16 05:22:48;;;;;;;29.10;13.20;;;;;;;-1.21;100.00;97140.47;5057699;28;20204;-72
2021/01/16 05:25:14;;;;;;;34.13;13.97;;;;;;;-1.33;100.00;97142.88;5058523;28;20236;-72
2021/01/16 05:27:59;;;;;;;30.77;14.07;;;;;;;-1.36;100.00;97143.06;5057921;28;20250;-72
2021/01/16 05:30:27;;;;;;;32.57;14.87;;;;;;;-1.34;100.00;97141.22;5057766;28;20201;-72
2021/01/16 05:32:53;;;;;;;30.83;13.43;;;;;;;-1.36;100.00;97144.78;5058312;28;20277;-72
2021/01/16 05:35:21;;;;;;;30.07;13.37;;;;;;;-1.41;100.00;97137.31;5056957;28;20617;-71
2021/01/16 05:37:49;;;;;;;30.07;14.07;;;;;;;-1.32;100.00;97141.97;5057583;28;20275;-72
2021/01/16 05:40:17;;;;;;;29.37;13.03;;;;;;;-1.25;100.00;97138.13;5058023;28;20203;-71
2021/01/16 05:42:43;;;;;;;30.50;13.60;;;;;;;-1.14;100.00;97134.03;5057932;28;20211;-71
2021/01/16 05:45:12;;;;;;;32.80;13.87;;;;;;;-1.31;100.00;97137.63;5056542;28;20224;-72
2021/01/16 05:47:42;;;;;;;29.73;13.90;;;;;;;-1.26;100.00;97122.69;5057518;28;20205;-72
2021/01/16 05:50:10;;;;;;;40.03;16.17;;;;;;;-1.33;100.00;97131.72;5057194;28;20205;-72
2021/01/16 05:52:36;;;;;;;44.60;18.80;;;;;;;-1.32;100.00;97129.03;5057104;28;20232;-71
2021/01/16 05:55:07;;;;;;;43.37;17.07;;;;;;;-1.28;100.00;97133.13;5057361;28;20221;-72
2021/01/16 05:57:33;;;;;;;37.40;15.07;;;;;;;-1.20;100.00;97126.63;5057505;28;20209;-72
2021/01/16 06:00:00;;;;;;;31.27;13.17;;;;;;;-1.25;100.00;97126.94;5057174;28;20582;-72
2021/01/16 06:02:29;;;;;;;32.90;14.20;;;;;;;-1.19;100.00;97133.44;5057370;28;20197;-71
2021/01/16 06:04:56;;;;;;;32.90;13.47;;;;;;;-1.22;100.00;97136.22;5057405;28;20314;-72
2021/01/16 06:07:23;;;;;;;30.80;13.30;;;;;;;-1.19;100.00;97130.03;5056299;28;20672;-72
2021/01/16 06:09:50;;;;;;;31.80;13.93;;;;;;;-1.23;100.00;97125.09;5057117;28;20213;-72
2021/01/16 06:12:16;;;;;;;32.63;15.23;;;;;;;-1.21;100.00;97124.09;5057364;28;20733;-72
2021/01/16 06:14:44;;;;;;;33.33;14.67;;;;;;;-1.22;100.00;97131.03;5056846;28;20293;-72
2021/01/16 06:17:11;;;;;;;33.00;14.80;;;;;;;-1.29;100.00;97135.81;5056106;28;20200;-72
2021/01/16 06:19:42;;;;;;;30.90;15.60;;;;;;;-1.31;100.00;97127.28;5057191;28;20760;-71
2021/01/16 06:22:11;;;;;;;28.93;14.00;;;;;;;-1.41;100.00;97134.72;5057163;28;20205;-72
2021/01/16 06:24:38;;;;;;;30.53;14.57;;;;;;;-1.36;100.00;97144.78;5056976;28;20209;-71
2021/01/16 06:27:05;;;;;;;37.53;16.43;;;;;;;-1.39;100.00;97139.81;5056685;28;20197;-72
2021/01/16 06:29:33;;;;;;;33.53;16.33;;;;;;;-1.45;100.00;97134.97;5056399;28;20203;-72
2021/01/16 06:32:04;;;;;;;33.07;15.10;;;;;;;-1.45;100.00;97140.13;5056381;28;20207;-71
2021/01/16 06:34:32;;;;;;;34.57;15.33;;;;;;;-1.57;100.00;97139.03;5057361;28;20204;-72
2021/01/16 06:37:08;;;;;;;33.43;15.67;;;;;;;-1.49;100.00;97136.03;5056633;28;20960;-72
2021/01/16 06:39:37;;;;;;;34.20;15.37;;;;;;;-1.63;100.00;97148.88;5056640;28;20713;-72
2021/01/16 06:42:09;;;;;;;33.87;14.70;;;;;;;-1.68;100.00;97143.13;5056719;28;20200;-72
2021/01/16 06:44:35;;;;;;;34.50;15.37;;;;;;;-1.81;100.00;97148.13;5057319;28;20205;-72
2021/01/16 06:47:02;;;;;;;36.80;16.57;;;;;;;-1.89;100.00;97146.03;5055897;28;20211;-73
2021/01/16 06:49:30;;;;;;;45.73;18.40;;;;;;;-1.98;100.00;97142.16;5056430;28;20258;-72
2021/01/16 06:51:57;;;;;;;39.63;17.53;;;;;;;-2.08;100.00;97137.56;5056600;28;20201;-72
2021/01/16 06:54:24;;;;;;;41.97;17.57;;;;;;;-1.98;100.00;97139.56;5056676;28;20234;-73
2021/01/16 06:57:03;;;;;;;43.23;18.40;;;;;;;-1.98;100.00;97139.56;5056083;28;20301;-73
2021/01/16 06:59:29;;;;;;;44.97;17.83;;;;;;;-1.98;100.00;97143.91;5056545;28;20207;-73
2021/01/16 07:01:57;;;;;;;41.77;17.37;;;;;;;-1.85;100.00;97134.59;5056684;28;20220;-72
2021/01/16 07:04:23;;;;;;;46.20;18.03;;;;;;;-1.97;100.00;97136.09;5056925;28;20211;-73
2021/01/16 07:06:50;;;;;;;51.87;20.13;;;;;;;-1.98;100.00;97137.00;5055460;28;20220;-73
2021/01/16 07:09:18;;;;;;;40.73;18.20;;;;;;;-2.05;100.00;97142.56;5056470;28;20234;-72
2021/01/16 07:11:46;;;;;;;59.63;22.50;;;;;;;-2.11;100.00;97135.97;5056802;28;20696;-73
2021/01/16 07:14:14;;;;;;;51.27;18.77;;;;;;;-2.00;100.00;97133.66;5056381;28;20231;-73
2021/01/16 07:16:42;;;;;;;45.03;18.53;;;;;;;-1.97;100.00;97130.94;5055182;28;20220;-73
2021/01/16 07:19:08;;;;;;;45.80;18.23;;;;;;;-1.99;100.00;97132.75;5057221;28;20238;-71
2021/01/16 07:21:40;;;;;;;44.63;17.37;;;;;;;-2.03;100.00;97131.22;5056574;28;20210;-72
2021/01/16 07:24:08;;;;;;;46.07;19.63;;;;;;;-2.10;100.00;97139.38;5057110;28;20236;-72
2021/01/16 07:26:36;;;;;;;44.27;18.43;;;;;;;-2.10;100.00;97129.91;5056469;28;20793;-73
2021/01/16 07:29:05;;;;;;;45.00;19.33;;;;;;;-2.08;100.00;97128.06;5055622;28;20203;-72
2021/01/16 07:31:36;;;;;;;49.13;19.83;;;;;;;-2.09;100.00;97131.53;5055700;28;20315;-72
2021/01/16 07:34:03;;;;;;;86.10;31.63;;;;;;;-2.06;100.00;97134.00;5056145;28;20221;-72
2021/01/16 07:36:29;;;;;;;73.33;27.70;;;;;;;-1.86;100.00;97128.59;5055392;28;20224;-71
2021/01/16 07:39:00;;;;;;;62.77;25.40;;;;;;;-1.96;100.00;97132.59;5056452;28;20205;-72
2021/01/16 07:41:31;;;;;;;52.83;23.47;;;;;;;-2.04;100.00;97131.31;5056193;28;20574;-72
2021/01/16 07:44:06;;;;;;;52.93;21.80;;;;;;;-2.05;100.00;97134.81;5056145;28;20207;-71
2021/01/16 07:46:33;;;;;;;47.07;20.27;;;;;;;-2.11;100.00;97132.56;5054734;28;20220;-73
2021/01/16 07:49:00;;;;;;;48.43;20.87;;;;;;;-2.09;100.00;97138.47;5055756;28;20686;-72
2021/01/16 07:51:31;;;;;;;51.03;19.03;;;;;;;-2.10;100.00;97137.66;5056053;28;20207;-71
2021/01/16 07:54:01;;;;;;;54.23;21.87;;;;;;;-2.08;100.00;97140.97;5055846;28;20220;-71
2021/01/16 07:56:38;;;;;;;57.90;24.17;;;;;;;-1.93;100.00;97139.34;5055266;28;20335;-71
2021/01/16 07:59:14;;;;;;;78.10;29.13;;;;;;;-1.97;100.00;97143.84;5054606;28;20572;-72
2021/01/16 08:02:16;;;;;;;63.37;25.90;;;;;;;-1.95;100.00;97142.00;5055408;28;20278;-72
2021/01/16 08:04:50;;;;;;;68.70;25.27;;;;;;;-2.12;100.00;97138.63;5053836;28;20310;-72
2021/01/16 08:07:28;;;;;;;70.37;26.70;;;;;;;-2.12;100.00;97142.03;5054818;28;20528;-75
2021/01/16 08:09:55;;;;;;;84.17;33.20;;;;;;;-2.03;100.00;97141.56;5055905;28;20211;-72
2021/01/16 08:12:23;;;;;;;61.40;25.40;;;;;;;-1.90;100.00;97132.25;5057786;28;20596;-72
2021/01/16 08:14:50;;;;;;;52.60;21.63;;;;;;;-1.85;100.00;97135.44;5059225;28;20991;-72
2021/01/16 08:17:20;;;;;;;53.03;19.70;;;;;;;-1.71;100.00;97143.28;5058849;28;20203;-71
2021/01/16 08:20:18;;;;;;;50.87;19.63;;;;;;;-1.61;100.00;97129.78;5058874;28;20254;-74
2021/01/16 08:22:51;;;;;;;56.47;24.20;;;;;;;-1.56;100.00;97132.13;5058252;28;20462;-72
2021/01/16 08:25:21;;;;;;;64.87;28.00;;;;;;;-1.67;100.00;97135.31;5058246;28;20224;-71
2021/01/16 08:27:48;;;;;;;54.73;23.00;;;;;;;-1.77;100.00;97139.28;5058409;28;20708;-72
2021/01/16 08:30:16;;;;;;;54.17;21.60;;;;;;;-1.64;100.00;97144.66;5058243;28;20698;-72
2021/01/16 08:32:53;;;;;;;55.03;22.63;;;;;;;-1.48;100.00;97140.31;5058838;28;20235;-72
2021/01/16 08:35:21;;;;;;;55.83;22.57;;;;;;;-1.40;100.00;97132.97;5057838;28;20620;-71
2021/01/16 08:37:47;;;;;;;53.37;23.53;;;;;;;-1.36;100.00;97134.44;5058398;28;20565;-72
2021/01/16 08:40:13;;;;;;;51.00;20.70;;;;;;;-1.31;100.00;97133.31;5058930;28;20291;-72
2021/01/16 08:42:50;;;;;;;46.37;19.87;;;;;;;-1.49;100.00;97152.41;5058325;28;20200;-72
2021/01/16 08:45:18;;;;;;;48.87;19.73;;;;;;;-1.49;100.00;97138.63;5057566;28;20707;-71
2021/01/16 08:47:49;;;;;;;52.23;20.23;;;;;;;-1.37;100.00;97153.50;5058322;28;20212;-72
2021/01/16 08:50:17;;;;;;;59.30;20.80;;;;;;;-1.31;100.00;97142.78;5058715;28;20196;-72
2021/01/16 08:52:43;;;;;;;52.07;21.33;;;;;;;-1.22;100.00;97138.78;5058047;28;20231;-72
2021/01/16 08:55:09;;;;;;;50.33;19.90;;;;;;;-1.08;100.00;97143.22;5057269;28;20227;-72
2021/01/16 08:57:37;;;;;;;48.07;21.50;;;;;;;-1.10;100.00;97140.69;5058385;28;20212;-72
2021/01/16 09:00:17;;;;;;;59.43;20.87;;;;;;;-1.18;100.00;97134.28;5057824;28;20207;-72
2021/01/16 09:03:04;;;;;;;81.67;27.47;;;;;;;-1.36;100.00;97137.88;5058334;28;20204;-72
2021/01/16 09:05:33;;;;;;;66.17;24.83;;;;;;;-1.24;100.00;97132.03;5057036;28;20644;-72
2021/01/16 09:07:59;;;;;;;66.07;24.90;;;;;;;-1.29;100.00;97134.03;5057192;28;20196;-72
2021/01/16 09:10:26;;;;;;;64.33;25.57;;;;;;;-1.22;100.00;97140.56;5056919;28;20209;-71
2021/01/16 09:12:53;;;;;;;57.27;22.83;;;;;;;-1.26;100.00;97140.78;5058705;28;20285;-72
2021/01/16 09:15:22;;;;;;;60.53;23.87;;;;;;;-1.12;100.00;97142.53;5057393;28;20220;-72
2021/01/16 09:18:09;;;;;;;91.37;32.50;;;;;;;-1.00;100.00;97147.03;5057642;28;20276;-72
2021/01/16 09:20:38;;;;;;;53.40;21.20;;;;;;;-0.99;100.00;97146.09;5053337;28;21270;-72
2021/01/16 09:23:27;;;;;;;55.60;20.67;;;;;;;-1.18;100.00;97150.63;5057068;28;20344;-72
2021/01/16 09:25:56;;;;;;;40.53;16.80;;;;;;;-1.54;100.00;97156.97;5056733;28;20233;-71
2021/01/16 09:28:45;;;;;;;52.10;18.87;;;;;;;-1.28;100.00;97153.00;5057733;28;20200;-71
2021/01/16 09:31:23;;;;;;;50.07;20.73;;;;;;;-1.21;100.00;97145.63;5057540;28;20229;-72
2021/01/16 09:33:50;;;;;;;70.73;25.33;;;;;;;-1.21;100.00;97144.78;5057600;28;20232;-72
2021/01/16 09:36:40;;;;;;;63.20;22.77;;;;;;;-1.15;100.00;97155.63;5057214;28;20223;-72
2021/01/16 09:39:14;;;;;;;52.40;20.87;;;;;;;-1.16;100.00;97145.38;5057645;28;20204;-71
2021/01/16 09:41:40;;;;;;;50.53;20.80;;;;;;;-1.13;100.00;97148.63;5057500;28;20636;-72
2021/01/16 09:44:06;;;;;;;59.73;23.73;;;;;;;-0.89;100.00;97139.50;5057786;28;20196;-72
2021/01/16 09:46:34;;;;;;;53.60;22.47;;;;;;;-0.90;100.00;97145.59;5056866;28;20228;-72
2021/01/16 09:49:00;;;;;;;50.13;21.23;;;;;;;-0.98;100.00;97144.34;5057312;28;20201;-71
2021/01/16 09:51:29;;;;;;;49.30;18.77;;;;;;;-0.97;100.00;97135.66;5057264;28;20202;-72
2021/01/16 09:54:07;;;;;;;51.10;20.47;;;;;;;-0.74;100.00;97136.03;5057616;28;20232;-72
2021/01/16 09:56:46;;;;;;;50.33;22.23;;;;;;;-0.54;100.00;97127.97;5056764;28;20233;-72
2021/01/16 09:59:14;;;;;;;54.83;21.27;;;;;;;-0.29;100.00;97118.66;5057228;28;20261;-72
2021/01/16 10:01:41;;;;;;;53.70;21.60;;;;;;;-0.38;100.00;97119.22;5057635;28;20294;-72
2021/01/16 10:04:21;;;;;;;52.03;21.80;;;;;;;-0.45;100.00;97115.28;5057256;28;20286;-72
2021/01/16 10:06:48;;;;;;;50.47;22.17;;;;;;;-0.31;100.00;97117.09;5056212;28;21032;-72
2021/01/16 10:09:20;;;;;;;49.43;21.83;;;;;;;-0.22;100.00;97112.19;5057545;28;20271;-72
2021/01/16 10:11:46;;;;;;;50.03;22.07;;;;;;;-0.24;100.00;97113.19;5057264;28;20261;-72
2021/01/16 10:14:13;;;;;;;43.33;17.67;;;;;;;-0.37;100.00;97112.25;5056302;28;20224;-73
2021/01/16 10:16:41;;;;;;;54.87;21.03;;;;;;;-0.56;100.00;97106.50;5056529;28;20224;-71
2021/01/16 10:19:11;;;;;;;55.17;22.20;;;;;;;-0.38;100.00;97105.41;5057896;28;20200;-72
2021/01/16 10:21:48;;;;;;;59.93;23.80;;;;;;;-0.30;100.00;97109.22;5056528;28;20215;-72
2021/01/16 10:24:17;;;;;;;48.90;18.40;;;;;;;-0.57;100.00;97097.91;5057022;28;20192;-72
2021/01/16 10:26:45;;;;;;;53.87;22.27;;;;;;;-0.56;100.00;97098.72;5056734;28;20232;-72
2021/01/16 10:29:18;;;;;;;55.70;22.50;;;;;;;-0.39;100.00;97102.00;5056781;28;20208;-72
2021/01/16 10:31:44;;;;;;;47.63;19.60;;;;;;;-0.30;100.00;97092.88;5056960;28;20231;-73
2021/01/16 10:34:11;;;;;;;43.00;17.90;;;;;;;-0.40;100.00;97083.97;5057002;28;20746;-73
2021/01/16 10:36:38;;;;;;;53.20;23.43;;;;;;;-0.29;100.00;97081.59;5056131;28;20295;-73
2021/01/16 10:39:09;;;;;;;36.57;15.17;;;;;;;-0.51;100.00;97079.44;5056603;28;20200;-73
2021/01/16 10:41:37;;;;;;;34.83;13.83;;;;;;;-0.44;100.00;97079.91;5057141;28;20212;-72
2021/01/16 10:44:05;;;;;;;43.87;17.63;;;;;;;-0.33;100.00;97069.72;5055938;28;20200;-72
2021/01/16 10:46:38;;;;;;;41.63;16.43;;;;;;;-0.18;100.00;97074.81;5056131;28;20232;-73
2021/01/16 10:49:15;;;;;;;45.43;18.73;;;;;;;-0.20;100.00;97065.50;5056586;28;20254;-72
2021/01/16 10:51:47;;;;;;;48.93;19.87;;;;;;;-0.12;100.00;97058.09;5056408;28;20262;-72
2021/01/16 10:54:15;;;;;;;42.20;17.17;;;;;;;-0.24;100.00;97058.81;5056822;28;20591;-73
2021/01/16 10:56:43;;;;;;;48.00;18.83;;;;;;;-0.27;100.00;97057.25;5055929;28;20351;-72
2021/01/16 10:59:12;;;;;;;43.47;16.57;;;;;;;-0.24;100.00;97057.09;5056709;28;20212;-73
2021/01/16 11:01:46;;;;;;;40.43;16.13;;;;;;;-0.22;100.00;97046.63;5056596;28;20203;-71
2021/01/16 11:04:21;;;;;;;41.40;17.50;;;;;;;-0.20;100.00;97050.78;5055924;28;20200;-72
2021/01/16 11:06:52;;;;;;;42.90;17.07;;;;;;;-0.09;100.00;97042.38;5055751;28;20220;-73
2021/01/16 11:09:46;;;;;;;48.47;18.57;;;;;;;-0.17;100.00;97045.41;5056049;28;20204;-73
2021/01/16 11:12:12;;;;;;;45.93;17.97;;;;;;;-0.10;100.00;97036.38;5056535;28;20204;-72
2021/01/16 11:14:41;;;;;;;42.00;17.03;;;;;;;-0.06;98.86;97026.63;5056163;28;20220;-72
2021/01/16 11:17:08;;;;;;;39.40;16.07;;;;;;;-0.30;99.08;97033.31;5055656;28;20269;-72
2021/01/16 11:19:36;;;;;;;42.07;16.97;;;;;;;-0.23;99.99;97025.09;5056568;28;20211;-72